createdAt,value
2022-11-24T00:01:03.969Z,94.8
2022-11-24T00:02:58.656Z,94.8
2022-11-24T00:04:58.309Z,94.8
2022-11-24T00:06:58.117Z,94.8
2022-11-24T00:08:59.120Z,94.8
2022-11-24T00:11:03.326Z,94.8
2022-11-24T00:12:57.570Z,94.8
2022-11-24T00:14:57.329Z,94.8
2022-11-24T00:16:57.198Z,93.9
2022-11-24T00:18:59.521Z,93.9
2022-11-24T00:20:56.803Z,94.6
2022-11-24T00:22:56.566Z,94.6
2022-11-24T00:24:56.431Z,94.6
2022-11-24T00:26:56.185Z,94.6
2022-11-24T00:28:58.648Z,95
2022-11-24T00:30:56.006Z,95
2022-11-24T00:32:55.620Z,95.4
2022-11-24T00:34:55.710Z,95.4
2022-11-24T00:36:55.242Z,95.4
2022-11-24T00:38:56.537Z,96
2022-11-24T00:40:54.951Z,96
2022-11-24T00:42:54.879Z,96
2022-11-24T00:44:54.477Z,96
2022-11-24T00:46:54.350Z,96
2022-11-24T00:48:54.704Z,95.4
2022-11-24T00:50:56.850Z,95.4
2022-11-24T00:52:53.585Z,96.1
2022-11-24T00:54:53.451Z,95.4
2022-11-24T00:56:53.247Z,96
2022-11-24T00:58:53.623Z,96.1
2022-11-24T01:00:52.889Z,96.1
2022-11-24T01:02:53.295Z,96.1
2022-11-24T01:04:52.371Z,96.1
2022-11-24T01:06:52.198Z,96.1
2022-11-24T01:08:52.103Z,96.3
2022-11-24T01:10:51.787Z,96.6
2022-11-24T01:12:51.575Z,95.8
2022-11-24T01:14:51.714Z,95.7
2022-11-24T01:16:51.334Z,95.7
2022-11-24T01:18:51.735Z,96.2
2022-11-24T01:20:50.831Z,96.2
2022-11-24T01:22:50.600Z,95.2
2022-11-24T01:24:50.386Z,96.1
2022-11-24T01:26:50.172Z,96.1
2022-11-24T01:28:53.714Z,96.4
2022-11-24T01:30:56.943Z,96.4
2022-11-24T01:32:49.653Z,95.6
2022-11-24T01:34:49.454Z,96.1
2022-11-24T01:36:49.285Z,96.1
2022-11-24T01:38:49.584Z,96.2
2022-11-24T01:40:48.853Z,96.2
2022-11-24T01:42:50.932Z,96.6
2022-11-24T01:44:51.289Z,96.6
2022-11-24T01:46:52.328Z,96.6
2022-11-24T01:48:55.063Z,96.8
2022-11-24T01:50:53.328Z,96.8
2022-11-24T01:52:51.859Z,96.1
2022-11-24T01:54:52.401Z,96.1
2022-11-24T01:56:53.004Z,95.5
2022-11-24T01:58:49.428Z,95.6
2022-11-24T02:00:47.132Z,95.6
2022-11-24T02:02:46.757Z,96
2022-11-24T02:04:47.812Z,96
2022-11-24T02:06:47.583Z,96
2022-11-24T02:08:51.678Z,95.6
2022-11-24T02:10:46.679Z,95.6
2022-11-24T02:12:47.707Z,95.6
2022-11-24T02:14:46.057Z,95.6
2022-11-24T02:16:49.782Z,95.5
2022-11-24T02:18:45.075Z,95.5
2022-11-24T02:20:44.858Z,95.5
2022-11-24T02:22:53.188Z,96.3
2022-11-24T02:24:49.556Z,96.3
2022-11-24T02:26:46.419Z,96.3
2022-11-24T02:28:44.740Z,95.7
2022-11-24T02:30:44.451Z,95.7
2022-11-24T02:32:43.697Z,95.7
2022-11-24T02:34:43.505Z,95.7
2022-11-24T02:36:43.261Z,95
2022-11-24T02:38:43.382Z,95
2022-11-24T02:40:46.230Z,95
2022-11-24T02:42:45.251Z,95.7
2022-11-24T02:44:46.941Z,95.7
2022-11-24T02:46:42.379Z,95.7
2022-11-24T02:48:42.259Z,95.6
2022-11-24T02:50:41.955Z,95.6
2022-11-24T02:52:41.845Z,95.6
2022-11-24T02:54:41.627Z,95.6
2022-11-24T02:56:41.439Z,96.2
2022-11-24T02:58:41.161Z,96.6
2022-11-24T03:00:40.888Z,97
2022-11-24T03:02:40.844Z,96.4
2022-11-24T03:04:40.464Z,96.4
2022-11-24T03:06:40.681Z,96.4
2022-11-24T03:08:40.072Z,95.9
2022-11-24T03:10:39.914Z,95.9
2022-11-24T03:12:39.692Z,95.9
2022-11-24T03:14:39.530Z,95.9
2022-11-24T03:16:39.360Z,95.4
2022-11-24T03:18:39.093Z,95.4
2022-11-24T03:20:39.258Z,95.4
2022-11-24T03:22:38.848Z,95.4
2022-11-24T03:24:38.496Z,96.1
2022-11-24T03:26:38.351Z,95.4
2022-11-24T03:28:38.228Z,95.3
2022-11-24T03:30:37.993Z,95.3
2022-11-24T03:32:37.781Z,95.3
2022-11-24T03:34:37.560Z,95.3
2022-11-24T03:36:37.310Z,95.3
2022-11-24T03:38:37.192Z,96.2
2022-11-24T03:40:36.957Z,95.6
2022-11-24T03:42:36.781Z,95.6
2022-11-24T03:44:36.724Z,95.6
2022-11-24T03:46:36.427Z,95.6
2022-11-24T03:48:36.244Z,96.2
2022-11-24T03:50:35.921Z,96.2
2022-11-24T03:52:35.823Z,96.2
2022-11-24T03:54:35.797Z,96.2
2022-11-24T03:56:35.404Z,96.2
2022-11-24T03:58:35.293Z,95.6
2022-11-24T04:00:34.906Z,95.6
2022-11-24T04:02:34.750Z,96.4
2022-11-24T04:04:34.953Z,95.7
2022-11-24T04:06:34.376Z,95.7
2022-11-24T04:08:34.354Z,95.9
2022-11-24T04:10:36.053Z,95
2022-11-24T04:12:33.710Z,95
2022-11-24T04:14:33.701Z,94.3
2022-11-24T04:16:33.276Z,94.3
2022-11-24T04:18:32.926Z,95
2022-11-24T04:20:33.849Z,94.2
2022-11-24T04:22:32.692Z,94.2
2022-11-24T04:24:32.958Z,94.2
2022-11-24T04:26:32.268Z,94.8
2022-11-24T04:28:31.982Z,94.2
2022-11-24T04:30:32.650Z,94.9
2022-11-24T04:32:31.707Z,94.9
2022-11-24T04:34:32.131Z,95.4
2022-11-24T04:36:31.221Z,96
2022-11-24T04:39:23.459Z,95.9
2022-11-24T04:40:30.862Z,95.9
2022-11-24T04:42:30.624Z,95.9
2022-11-24T04:44:30.460Z,95.9
2022-11-24T04:46:30.314Z,95.2
2022-11-24T04:48:30.003Z,95.1
2022-11-24T04:50:30.044Z,95.1
2022-11-24T04:52:29.722Z,94.6
2022-11-24T04:54:29.377Z,95.2
2022-11-24T04:56:29.290Z,93.7
2022-11-24T04:58:29.012Z,94.3
2022-11-24T05:00:28.763Z,93.7
2022-11-24T05:02:28.603Z,93.7
2022-11-24T05:04:28.488Z,93.7
2022-11-24T05:06:28.311Z,93.7
2022-11-24T05:08:28.097Z,93.9
2022-11-24T05:10:27.938Z,94.5
2022-11-24T05:12:28.268Z,93.9
2022-11-24T05:14:27.740Z,93.9
2022-11-24T05:16:27.487Z,94.6
2022-11-24T05:18:27.111Z,94
2022-11-24T05:20:27.045Z,94
2022-11-24T05:22:28.993Z,94.5
2022-11-24T05:24:26.470Z,94
2022-11-24T05:26:27.063Z,94
2022-11-24T05:28:26.151Z,93.6
2022-11-24T05:30:26.090Z,93.6
2022-11-24T05:32:25.725Z,93.1
2022-11-24T05:34:25.597Z,93.1
2022-11-24T05:36:25.235Z,93.1
2022-11-24T05:38:25.190Z,93.6
2022-11-24T05:40:24.853Z,93.6
2022-11-24T05:42:24.719Z,93.6
2022-11-24T05:44:24.535Z,93.9
2022-11-24T05:46:24.317Z,93.9
2022-11-24T05:48:24.088Z,94.2
2022-11-24T05:50:23.780Z,94.6
2022-11-24T05:52:23.706Z,94
2022-11-24T05:54:23.437Z,94
2022-11-24T05:56:23.207Z,94
2022-11-24T05:58:23.107Z,93.7
2022-11-24T06:00:22.838Z,93.5
2022-11-24T06:02:22.788Z,93.5
2022-11-24T06:04:22.505Z,93.5
2022-11-24T06:06:22.324Z,93.5
2022-11-24T06:08:25.537Z,93.4
2022-11-24T06:10:23.033Z,93.4
2022-11-24T06:12:21.669Z,93.4
2022-11-24T06:14:21.720Z,93.4
2022-11-24T06:16:21.665Z,93.4
2022-11-24T06:18:21.612Z,93.6
2022-11-24T06:20:21.562Z,93.6
2022-11-24T06:22:20.750Z,93.6
2022-11-24T06:24:20.594Z,93.6
2022-11-24T06:26:20.378Z,93.6
2022-11-24T06:28:20.118Z,93.5
2022-11-24T06:30:20.169Z,93.5
2022-11-24T06:32:19.853Z,93.5
2022-11-24T06:34:19.703Z,93.5
2022-11-24T06:36:19.578Z,93.5
2022-11-24T06:38:24.220Z,93.5
2022-11-24T06:40:19.014Z,93.5
2022-11-24T06:42:19.428Z,93.5
2022-11-24T06:44:18.897Z,94
2022-11-24T06:46:18.505Z,93.4
2022-11-24T06:48:18.184Z,93.8
2022-11-24T06:50:18.205Z,94
2022-11-24T06:52:17.738Z,94
2022-11-24T06:54:18.666Z,94.8
2022-11-24T06:56:19.759Z,93
2022-11-24T06:58:17.167Z,92.5
2022-11-24T07:00:18.308Z,93.5
2022-11-24T07:02:16.761Z,93.5
2022-11-24T07:04:16.562Z,93.5
2022-11-24T07:06:17.932Z,93.5
2022-11-24T07:08:17.913Z,93.7
2022-11-24T07:10:16.592Z,93.7
2022-11-24T07:12:15.822Z,93.7
2022-11-24T07:14:15.559Z,92.9
2022-11-24T07:16:18.190Z,92.9
2022-11-24T07:18:15.245Z,93.1
2022-11-24T07:20:16.002Z,93.1
2022-11-24T07:22:14.858Z,93.1
2022-11-24T07:24:14.668Z,93.1
2022-11-24T07:26:14.588Z,93.1
2022-11-24T07:28:14.291Z,93.1
2022-11-24T07:30:14.274Z,93.1
2022-11-24T07:32:13.931Z,93.5
2022-11-24T07:34:13.591Z,93.5
2022-11-24T07:36:13.464Z,92.8
2022-11-24T07:38:13.199Z,93.5
2022-11-24T07:40:13.104Z,93.5
2022-11-24T07:42:12.771Z,92.9
2022-11-24T07:44:12.605Z,92.9
2022-11-24T07:46:15.290Z,92
2022-11-24T07:48:12.138Z,92
2022-11-24T07:50:12.168Z,92
2022-11-24T07:52:11.870Z,92.5
2022-11-24T07:54:11.639Z,92.5
2022-11-24T07:56:11.404Z,92.4
2022-11-24T07:58:11.306Z,93.2
2022-11-24T08:00:12.001Z,92.3
2022-11-24T08:02:12.273Z,91.4
2022-11-24T08:04:10.680Z,91.9
2022-11-24T08:06:31.803Z,91.9
2022-11-24T08:08:10.237Z,92.3
2022-11-24T08:10:10.041Z,92.5
2022-11-24T08:12:09.802Z,92.5
2022-11-24T08:14:09.591Z,92
2022-11-24T08:16:12.008Z,92.5
2022-11-24T08:18:09.470Z,91.9
2022-11-24T08:20:10.077Z,91.9
2022-11-24T08:22:08.824Z,91.3
2022-11-24T08:24:08.693Z,91.4
2022-11-24T08:26:12.179Z,91.4
2022-11-24T08:28:08.252Z,91.5
2022-11-24T08:30:09.497Z,91.5
2022-11-24T08:32:08.580Z,91.5
2022-11-24T08:34:07.625Z,91.5
2022-11-24T08:36:10.482Z,90.8
2022-11-24T08:38:07.206Z,91
2022-11-24T08:40:08.371Z,91
2022-11-24T08:42:07.039Z,90.2
2022-11-24T08:44:06.843Z,90.2
2022-11-24T08:46:09.894Z,90.8
2022-11-24T08:48:06.673Z,90.3
2022-11-24T08:50:06.744Z,90.3
2022-11-24T08:52:05.958Z,91.2
2022-11-24T08:54:06.270Z,91.2
2022-11-24T08:56:06.841Z,91.2
2022-11-24T08:58:05.547Z,91.2
2022-11-24T09:00:06.834Z,91.2
2022-11-24T09:02:05.152Z,91.2
2022-11-24T09:04:05.280Z,92
2022-11-24T09:06:05.438Z,91.1
2022-11-24T09:08:04.837Z,90.5
2022-11-24T09:10:05.179Z,90.5
2022-11-24T09:12:07.485Z,90.5
2022-11-24T09:14:04.419Z,91.1
2022-11-24T09:16:04.173Z,90.1
2022-11-24T09:18:03.761Z,90.7
2022-11-24T09:20:04.010Z,91.2
2022-11-24T09:22:03.592Z,90.6
2022-11-24T09:24:03.460Z,90.6
2022-11-24T09:26:04.923Z,90
2022-11-24T09:28:02.888Z,90.2
2022-11-24T09:30:03.630Z,90.2
2022-11-24T09:32:06.781Z,90.7
2022-11-24T09:34:04.053Z,90.7
2022-11-24T09:36:02.866Z,90
2022-11-24T09:38:01.890Z,90
2022-11-24T09:40:01.746Z,90
2022-11-24T09:42:12.724Z,90.7
2022-11-24T09:44:08.219Z,91.6
2022-11-24T09:46:07.349Z,92.1
2022-11-24T09:48:08.165Z,91.7
2022-11-24T09:50:04.454Z,91.7
2022-11-24T09:52:03.161Z,91.7
2022-11-24T09:54:05.476Z,91.7
2022-11-24T09:56:04.456Z,91.7
2022-11-24T09:58:10.416Z,92.2
2022-11-24T10:00:12.257Z,91.6
2022-11-24T10:01:59.898Z,92.2
2022-11-24T10:04:05.906Z,92.2
2022-11-24T10:06:04.648Z,92.2
2022-11-24T10:08:10.128Z,91.8
2022-11-24T10:10:02.746Z,91.8
2022-11-24T10:12:12.877Z,91.8
2022-11-24T10:14:12.196Z,91.6
2022-11-24T10:16:09.696Z,91.6
2022-11-24T10:18:17.048Z,92.2
2022-11-24T10:20:08.271Z,92.2
2022-11-24T10:22:13.837Z,92.2
2022-11-24T10:24:18.539Z,92.2
2022-11-24T10:25:59.101Z,92.7
2022-11-24T10:28:01.954Z,92.2
2022-11-24T10:29:59.633Z,92.2
2022-11-24T10:31:57.485Z,92.2
2022-11-24T10:34:00.440Z,91
2022-11-24T10:36:02.779Z,91.9
2022-11-24T10:38:06.699Z,92.2
2022-11-24T10:40:10.798Z,91.1
2022-11-24T10:42:02.104Z,91.9
2022-11-24T10:43:57.492Z,91.8
2022-11-24T10:46:04.776Z,91.8
2022-11-24T10:47:56.975Z,91.5
2022-11-24T10:49:59.867Z,91.5
2022-11-24T10:52:04.587Z,91.5
2022-11-24T10:53:59.915Z,91.5
2022-11-24T10:56:00.434Z,91.5
2022-11-24T10:57:55.169Z,92.4
2022-11-24T10:59:54.394Z,91.8
2022-11-24T11:01:54.500Z,91.8
2022-11-24T11:03:57.504Z,91.8
2022-11-24T11:05:56.974Z,91.1
2022-11-24T11:08:14.367Z,91.6
2022-11-24T11:10:22.951Z,91
2022-11-24T11:11:53.516Z,91.7
2022-11-24T11:14:01.649Z,91.7
2022-11-24T11:15:55.322Z,91.7
2022-11-24T11:17:57.147Z,92.3
2022-11-24T11:20:01.445Z,91.8
2022-11-24T11:22:00.516Z,92.7
2022-11-24T11:23:52.540Z,91.4
2022-11-24T11:26:21.968Z,91.4
2022-11-24T11:28:18.110Z,91.3
2022-11-24T11:34:06.971Z,91.6
2022-11-24T11:35:51.988Z,91.6
2022-11-24T11:37:53.583Z,91.6
2022-11-24T11:39:52.927Z,91.6
2022-11-24T11:42:00.471Z,92.1
2022-11-24T11:44:03.889Z,91.3
2022-11-24T11:46:00.764Z,91.3
2022-11-24T11:47:54.879Z,91.3
2022-11-24T11:49:50.065Z,91.3
2022-11-24T11:52:07.671Z,91.3
2022-11-24T11:53:57.328Z,91.3
2022-11-24T11:56:01.356Z,91.3
2022-11-24T11:58:00.388Z,91.6
2022-11-24T12:00:01.335Z,92.1
2022-11-24T12:02:12.119Z,91.5
2022-11-24T12:03:58.347Z,91.5
2022-11-24T12:05:56.896Z,91.5
2022-11-24T12:08:09.243Z,91.2
2022-11-24T12:10:01.394Z,92
2022-11-24T12:12:00.625Z,91.3
2022-11-24T12:14:03.678Z,91.3
2022-11-24T12:15:51.257Z,91.3
2022-11-24T12:17:52.779Z,91.7
2022-11-24T12:20:03.219Z,92.2
2022-11-24T12:21:54.479Z,91.6
2022-11-24T12:24:02.881Z,91.6
2022-11-24T12:25:54.563Z,92.1
2022-11-24T12:27:56.032Z,91.5
2022-11-24T12:30:01.708Z,91.5
2022-11-24T12:31:54.538Z,91
2022-11-24T12:34:04.628Z,91
2022-11-24T12:35:51.503Z,91
2022-11-24T12:37:57.298Z,91.5
2022-11-24T12:39:54.896Z,91.5
2022-11-24T12:41:58.977Z,91.5
2022-11-24T12:43:50.477Z,91.5
2022-11-24T12:45:54.080Z,91.5
2022-11-24T12:48:02.822Z,91.5
2022-11-24T12:49:56.840Z,91.5
2022-11-24T12:51:47.491Z,91.5
2022-11-24T12:53:45.298Z,92.5
2022-11-24T12:55:43.902Z,91.2
2022-11-24T12:57:50.685Z,90.7
2022-11-24T12:59:52.205Z,90.7
2022-11-24T13:01:50.304Z,91.3
2022-11-24T13:03:56.711Z,91.3
2022-11-24T13:05:52.134Z,90.4
2022-11-24T13:07:46.189Z,91
2022-11-24T13:10:11.511Z,91
2022-11-24T13:11:43.657Z,91
2022-11-24T13:13:57.420Z,91
2022-11-24T13:17:59.489Z,90.9
2022-11-24T13:19:41.262Z,90.9
2022-11-24T13:21:49.908Z,90.9
2022-11-24T13:23:40.792Z,92.2
2022-11-24T13:25:40.880Z,91.3
2022-11-24T13:27:43.008Z,91.9
2022-11-24T13:29:41.676Z,91.1
2022-11-24T13:31:40.156Z,91.7
2022-11-24T13:33:39.865Z,90.8
2022-11-24T13:35:55.230Z,90.8
2022-11-24T13:37:49.443Z,91.5
2022-11-24T13:39:50.501Z,92
2022-11-24T13:41:59.545Z,92
2022-11-24T13:44:08.564Z,92
2022-11-24T13:45:53.350Z,91.5
2022-11-24T13:47:41.408Z,92.4
2022-11-24T13:49:39.303Z,92.4
2022-11-24T13:51:38.027Z,92.9
2022-11-24T13:53:43.426Z,92.1
2022-11-24T13:55:39.536Z,92.7
2022-11-24T13:57:39.920Z,92.2
2022-11-24T13:59:37.350Z,92.2
2022-11-24T14:01:37.205Z,93.3
2022-11-24T14:03:55.349Z,92.4
2022-11-24T14:05:39.317Z,92.4
2022-11-24T14:07:36.782Z,92.6
2022-11-24T14:09:42.854Z,92.6
2022-11-24T14:11:36.349Z,92.6
2022-11-24T14:13:36.235Z,92.6
2022-11-24T14:15:35.747Z,91.7
2022-11-24T14:17:36.978Z,91.9
2022-11-24T14:19:35.253Z,91.8
2022-11-24T14:21:37.679Z,91.8
2022-11-24T14:23:40.845Z,91.8
2022-11-24T14:25:34.711Z,91.8
2022-11-24T14:27:37.492Z,92.4
2022-11-24T14:29:34.208Z,91.7
2022-11-24T14:31:34.159Z,93.1
2022-11-24T14:33:34.188Z,91.9
2022-11-24T14:35:35.252Z,95.3
2022-11-24T14:37:33.545Z,92.2
2022-11-24T14:39:40.317Z,92.2
2022-11-24T14:41:33.588Z,93
2022-11-24T14:43:32.917Z,92.1
2022-11-24T14:45:34.038Z,92.1
2022-11-24T14:47:35.133Z,92.9
2022-11-24T14:49:33.705Z,92.9
2022-11-24T14:51:34.478Z,92.3
2022-11-24T14:53:32.464Z,91.6
2022-11-24T14:55:32.759Z,94.1
2022-11-24T14:57:33.277Z,92.5
2022-11-24T14:59:33.602Z,93.6
2022-11-24T15:01:33.632Z,92.4
2022-11-24T15:03:30.941Z,92.4
2022-11-24T15:05:53.881Z,93.4
2022-11-24T15:07:30.719Z,91.8
2022-11-24T15:09:35.368Z,92.7
2022-11-24T15:11:31.298Z,92.7
2022-11-24T15:13:34.332Z,92.2
2022-11-24T15:15:32.835Z,92.2
2022-11-24T15:17:30.116Z,92.9
2022-11-24T15:19:33.564Z,92
2022-11-24T15:21:30.702Z,94.4
2022-11-24T15:23:30.338Z,91.2
2022-11-24T15:25:31.580Z,92
2022-11-24T15:27:28.726Z,91.9
2022-11-24T15:29:28.522Z,94.6
2022-11-24T15:31:28.375Z,93.1
2022-11-24T15:33:29.360Z,92.5
2022-11-24T15:35:31.337Z,92.5
2022-11-24T15:37:31.385Z,92.1
2022-11-24T15:39:27.434Z,92.1
2022-11-24T15:41:29.199Z,92.1
2022-11-24T15:43:30.861Z,92.1
2022-11-24T15:45:26.903Z,92.1
2022-11-24T15:47:26.706Z,93.1
2022-11-24T15:49:26.463Z,93.1
2022-11-24T15:51:26.415Z,92
2022-11-24T15:53:32.175Z,92
2022-11-24T15:55:25.925Z,92
2022-11-24T15:57:25.755Z,91.7
2022-11-24T15:59:25.517Z,91.7
2022-11-24T16:01:29.576Z,92.5
2022-11-24T16:03:46.344Z,92.5
2022-11-24T16:05:24.980Z,92.5
2022-11-24T16:07:25.020Z,92.3
2022-11-24T16:09:24.540Z,91.7
2022-11-24T16:11:24.342Z,91.7
2022-11-24T16:13:24.353Z,92.6
2022-11-24T16:15:24.250Z,92.6
2022-11-24T16:17:23.782Z,92.5
2022-11-24T16:19:23.623Z,92.5
2022-11-24T16:21:23.323Z,92.5
2022-11-24T16:23:23.400Z,92.5
2022-11-24T16:25:23.035Z,92.5
2022-11-24T16:27:22.771Z,92.7
2022-11-24T16:29:22.652Z,92.7
2022-11-24T16:31:22.453Z,92
2022-11-24T16:33:22.226Z,92.5
2022-11-24T16:35:22.022Z,93.2
2022-11-24T16:37:21.983Z,92.9
2022-11-24T16:39:21.575Z,93.4
2022-11-24T16:41:21.520Z,92.8
2022-11-24T16:43:21.479Z,92.8
2022-11-24T16:45:21.011Z,92.8
2022-11-24T16:47:21.087Z,92.8
2022-11-24T16:49:20.928Z,93.4
2022-11-24T16:51:22.177Z,93.4
2022-11-24T16:53:20.238Z,94
2022-11-24T16:55:20.245Z,94
2022-11-24T16:57:19.846Z,94.2
2022-11-24T16:59:19.649Z,93.9
2022-11-24T17:01:20.114Z,93.9
2022-11-24T17:03:19.566Z,94.6
2022-11-24T17:05:19.437Z,94.6
2022-11-24T17:07:19.576Z,94.8
2022-11-24T17:09:18.778Z,95.3
2022-11-24T17:11:20.854Z,95.3
2022-11-24T17:13:18.333Z,95.3
2022-11-24T17:15:33.441Z,95.3
2022-11-24T17:17:17.938Z,94.6
2022-11-24T17:19:17.909Z,94.6
2022-11-24T17:21:19.434Z,95.2
2022-11-24T17:23:17.407Z,95.2
2022-11-24T17:25:17.249Z,95.2
2022-11-24T17:27:17.006Z,95.3
2022-11-24T17:29:17.243Z,95.3
2022-11-24T17:31:21.275Z,95.3
2022-11-24T17:33:16.489Z,95.3
2022-11-24T17:35:16.236Z,95.3
2022-11-24T17:37:16.066Z,95.2
2022-11-24T17:39:20.279Z,95.2
2022-11-24T17:41:15.748Z,94.7
2022-11-24T17:43:15.600Z,94.7
2022-11-24T17:45:15.259Z,95.3
2022-11-24T17:47:15.310Z,94.5
2022-11-24T17:49:14.956Z,94.5
2022-11-24T17:51:16.998Z,95.1
2022-11-24T17:53:14.572Z,95.1
2022-11-24T17:55:14.645Z,95.1
2022-11-24T17:57:14.171Z,95.2
2022-11-24T17:59:13.986Z,95.2
2022-11-24T18:01:13.871Z,95.6
2022-11-24T18:03:13.555Z,95.6
2022-11-24T18:05:13.468Z,94.9
2022-11-24T18:07:13.328Z,95.2
2022-11-24T18:09:12.971Z,95.5
2022-11-24T18:11:14.951Z,95.5
2022-11-24T18:13:33.841Z,95.5
2022-11-24T18:15:12.407Z,95.5
2022-11-24T18:17:12.215Z,94.7
2022-11-24T18:19:12.072Z,95.2
2022-11-24T18:21:13.566Z,95.2
2022-11-24T18:23:11.653Z,95.2
2022-11-24T18:25:11.670Z,94.7
2022-11-24T18:27:11.250Z,94.7
2022-11-24T18:29:11.531Z,94.2
2022-11-24T18:31:13.923Z,94.2
2022-11-24T18:33:10.605Z,94.2
2022-11-24T18:35:10.751Z,95.3
2022-11-24T18:37:10.226Z,94.2
2022-11-24T18:39:10.126Z,94.9
2022-11-24T18:41:12.285Z,94.9
2022-11-24T18:43:09.772Z,94.9
2022-11-24T18:45:10.292Z,95.4
2022-11-24T18:47:09.478Z,94.8
2022-11-24T18:49:09.586Z,94.3
2022-11-24T18:51:09.822Z,94.3
2022-11-24T18:53:09.116Z,94.3
2022-11-24T18:55:09.215Z,94.3
2022-11-24T18:57:08.279Z,94.3
2022-11-24T18:59:08.319Z,94.4
2022-11-24T19:01:10.656Z,94.4
2022-11-24T19:03:08.974Z,94.4
2022-11-24T19:05:07.974Z,94.9
2022-11-24T19:07:07.508Z,94.3
2022-11-24T19:09:10.814Z,94.4
2022-11-24T19:11:07.111Z,94.4
2022-11-24T19:13:06.923Z,94.4
2022-11-24T19:15:07.915Z,94.4
2022-11-24T19:17:06.418Z,93.6
2022-11-24T19:19:07.049Z,93.8
2022-11-24T19:21:06.113Z,94.2
2022-11-24T19:23:05.886Z,94.2
2022-11-24T19:25:07.019Z,93.4
2022-11-24T19:27:05.654Z,93.4
2022-11-24T19:29:06.538Z,93.9
2022-11-24T19:31:07.302Z,93.9
2022-11-24T19:33:06.805Z,93.9
2022-11-24T19:35:05.335Z,93.9
2022-11-24T19:37:04.456Z,92.9
2022-11-24T19:39:04.232Z,93.4
2022-11-24T19:41:05.619Z,93.4
2022-11-24T19:43:03.956Z,93.4
2022-11-24T19:45:04.642Z,92.4
2022-11-24T19:47:03.453Z,92.4
2022-11-24T19:49:03.263Z,93.2
2022-11-24T19:51:05.606Z,93.2
2022-11-24T19:53:02.850Z,93.2
2022-11-24T19:55:03.285Z,93.2
2022-11-24T19:57:02.632Z,93.2
2022-11-24T19:59:03.915Z,92.4
2022-11-24T20:01:06.784Z,93
2022-11-24T20:03:02.001Z,93
2022-11-24T20:05:01.756Z,93
2022-11-24T20:07:01.632Z,92.5
2022-11-24T20:09:02.109Z,93
2022-11-24T20:11:03.859Z,93
2022-11-24T20:13:00.981Z,93
2022-11-24T20:15:00.681Z,93
2022-11-24T20:17:00.604Z,93
2022-11-24T20:19:02.208Z,92.4
2022-11-24T20:21:02.430Z,93
2022-11-24T20:22:59.936Z,93.6
2022-11-24T20:24:59.808Z,93
2022-11-24T20:26:59.613Z,92.4
2022-11-24T20:28:59.986Z,92.4
2022-11-24T20:31:01.349Z,93.1
2022-11-24T20:32:58.916Z,92.5
2022-11-24T20:34:58.748Z,92.5
2022-11-24T20:36:58.595Z,91.6
2022-11-24T20:39:00.241Z,92.4
2022-11-24T20:41:08.616Z,92.4
2022-11-24T20:42:57.968Z,92.4
2022-11-24T20:44:57.774Z,92.4
2022-11-24T20:46:58.054Z,92.4
2022-11-24T20:48:58.222Z,93.5
2022-11-24T20:51:02.075Z,92.4
2022-11-24T20:52:57.096Z,92.4
2022-11-24T20:54:56.724Z,92.4
2022-11-24T20:56:56.611Z,92.4
2022-11-24T20:58:56.641Z,92.9
2022-11-24T21:01:02.697Z,92.9
2022-11-24T21:02:55.963Z,92.9
2022-11-24T21:04:55.884Z,92.2
2022-11-24T21:06:55.584Z,92.2
2022-11-24T21:09:00.444Z,92.1
2022-11-24T21:10:56.670Z,93.1
2022-11-24T21:12:54.987Z,92.3
2022-11-24T21:14:54.835Z,93
2022-11-24T21:16:55.316Z,93
2022-11-24T21:18:56.197Z,92.7
2022-11-24T21:20:54.399Z,92.7
2022-11-24T21:22:54.076Z,92.7
2022-11-24T21:24:53.885Z,92.1
2022-11-24T21:26:53.723Z,92.7
2022-11-24T21:28:53.501Z,93.2
2022-11-24T21:30:53.555Z,92.7
2022-11-24T21:32:53.173Z,92.7
2022-11-24T21:34:52.902Z,92.7
2022-11-24T21:36:52.725Z,92.7
2022-11-24T21:38:54.579Z,92.7
2022-11-24T21:40:52.350Z,92.7
2022-11-24T21:42:52.145Z,93.2
2022-11-24T21:44:52.005Z,92.3
2022-11-24T21:46:55.908Z,92.3
2022-11-24T21:48:51.810Z,92.3
2022-11-24T21:50:51.533Z,92.3
2022-11-24T21:52:51.359Z,92.3
2022-11-24T21:54:51.118Z,92.3
2022-11-24T21:56:52.714Z,93
2022-11-24T21:58:52.130Z,93
2022-11-24T22:00:51.050Z,93
2022-11-24T22:02:50.504Z,92.5
2022-11-24T22:04:50.131Z,92.5
2022-11-24T22:06:51.888Z,92.5
2022-11-24T22:08:49.992Z,92
2022-11-24T22:10:50.114Z,93.4
2022-11-24T22:12:49.366Z,92.7
2022-11-24T22:14:49.711Z,92.7
2022-11-24T22:16:49.165Z,92.7
2022-11-24T22:18:49.886Z,92.6
2022-11-24T22:20:53.644Z,92.6
2022-11-24T22:22:48.560Z,93.2
2022-11-24T22:24:48.434Z,93.2
2022-11-24T22:26:48.221Z,92.7
2022-11-24T22:28:48.426Z,92.5
2022-11-24T22:30:47.782Z,92.5
2022-11-24T22:32:47.590Z,92.5
2022-11-24T22:34:47.368Z,93.2
2022-11-24T22:36:47.331Z,92.6
2022-11-24T22:38:51.597Z,92.6
2022-11-24T22:40:46.785Z,92.6
2022-11-24T22:42:46.610Z,92.6
2022-11-24T22:44:46.424Z,93.6
2022-11-24T22:46:46.546Z,92.6
2022-11-24T22:48:47.418Z,92.5
2022-11-24T22:50:45.925Z,92.5
2022-11-24T22:52:45.646Z,92.5
2022-11-24T22:54:45.435Z,92.5
2022-11-24T22:56:45.267Z,92.5
2022-11-24T22:58:45.896Z,92.6
2022-11-24T23:00:44.914Z,92.6
2022-11-24T23:02:44.731Z,92.6
2022-11-24T23:04:44.528Z,92
2022-11-24T23:06:44.267Z,92.8
2022-11-24T23:08:44.195Z,92.4
2022-11-24T23:10:43.924Z,92.1
2022-11-24T23:12:43.786Z,92.1
2022-11-24T23:14:43.528Z,92.8
2022-11-24T23:16:43.475Z,93.5
2022-11-24T23:18:44.397Z,93.5
2022-11-24T23:20:42.926Z,93.5
2022-11-24T23:22:42.844Z,92.4
2022-11-24T23:24:42.547Z,93
2022-11-24T23:26:42.470Z,93
2022-11-24T23:28:42.397Z,93
2022-11-24T23:30:42.048Z,93
2022-11-24T23:32:41.809Z,93.6
2022-11-24T23:34:41.675Z,92.8
2022-11-24T23:36:41.500Z,93.6
2022-11-24T23:38:41.918Z,94.4
2022-11-24T23:40:41.165Z,93.5
2022-11-24T23:42:40.979Z,92.7
2022-11-24T23:44:40.681Z,92.7
2022-11-24T23:46:40.579Z,93.2
2022-11-24T23:48:40.792Z,93.3
2022-11-24T23:50:40.184Z,93.7
2022-11-24T23:52:39.949Z,93.7
2022-11-24T23:54:40.076Z,93.1
2022-11-24T23:56:39.586Z,92.6
2022-11-24T23:58:39.720Z,93.1
